Time;durP1;ratioP1;P1;durP2;ratioP2;P2;SDS_P1;SDS_P2;PMS_P1;PMS_P2;Temp;Humidity;BMP_temperature;BMP_pressure;BME280_temperature;BME280_humidity;BME280_pressure;Samples;Min_cycle;Max_cycle;Signal;HPM_P1;HPM_P2
2023/04/22 00:01:00;;;;;;;0.10;0.10;;;;;;;8.37;44.62;99229.94;5146539;27;20042;-68
2023/04/22 00:03:27;;;;;;;;;;;;;;;8.31;44.72;99234.56;5143253;27;20443;-68
2023/04/22 00:05:54;;;;;;;0.20;0.20;;;;;;;8.21;44.99;99229.94;5126666;27;19991;-67
2023/04/22 00:08:22;;;;;;;0.35;0.20;;;;;;;8.14;45.20;99225.88;5147610;27;20122;-68
2023/04/22 00:10:49;;;;;;;0.10;0.10;;;;;;;8.14;45.25;99225.88;5145036;27;20050;-69
2023/04/22 00:13:16;;;;;;;0.10;0.10;;;;;;;8.13;45.56;99229.69;5111054;27;20489;-70
2023/04/22 00:15:42;;;;;;;0.10;0.10;;;;;;;8.15;45.64;99228.28;5148024;27;20049;-70
2023/04/22 00:18:12;;;;;;;0.20;0.20;;;;;;;8.12;45.49;99228.03;5147821;27;20145;-69
2023/04/22 00:20:42;;;;;;;0.10;0.10;;;;;;;8.12;45.57;99228.84;5146268;27;20047;-69
2023/04/22 00:23:10;;;;;;;0.20;0.20;;;;;;;8.13;45.66;99224.22;5144195;27;20593;-69
2023/04/22 00:25:38;;;;;;;0.10;0.10;;;;;;;8.13;45.97;99230.47;5146808;27;20039;-69
2023/04/22 00:28:05;;;;;;;0.10;0.10;;;;;;;8.07;45.70;99224.22;5144134;27;20425;-70
2023/04/22 00:30:31;;;;;;;0.10;0.10;;;;;;;8.01;45.92;99232.66;5148924;27;20447;-69
2023/04/22 00:32:57;;;;;;;0.10;0.10;;;;;;;8.01;45.92;99227.19;5145052;27;20100;-69
2023/04/22 00:35:23;;;;;;;0.10;0.10;;;;;;;8.02;46.23;99229.66;5148443;27;20042;-70
2023/04/22 00:37:50;;;;;;;0.17;0.17;;;;;;;7.98;46.20;99234.03;5148051;27;20050;-70
2023/04/22 00:40:16;;;;;;;0.10;0.10;;;;;;;7.95;46.29;99231.81;5148239;27;20039;-70
2023/04/22 00:42:45;;;;;;;0.20;0.20;;;;;;;7.91;46.35;99228.84;5131697;27;20049;-70
2023/04/22 00:45:14;;;;;;;0.17;0.17;;;;;;;7.87;46.60;99226.94;5148545;27;20047;-70
2023/04/22 00:47:41;;;;;;;0.15;0.15;;;;;;;7.79;46.48;99223.66;5148894;27;20050;-70
2023/04/22 00:50:08;;;;;;;0.10;0.10;;;;;;;7.80;46.66;99227.19;5130847;27;20046;-70
2023/04/22 00:52:34;;;;;;;0.10;0.10;;;;;;;7.76;46.73;99226.13;5147350;27;20078;-70
2023/04/22 00:55:00;;;;;;;0.15;0.15;;;;;;;7.74;46.91;99231.81;5133670;27;20051;-70
2023/04/22 00:57:28;;;;;;;0.10;0.10;;;;;;;7.72;47.03;99231.28;5149278;27;20050;-70
2023/04/22 00:59:56;;;;;;;0.10;0.10;;;;;;;7.65;47.11;99222.56;5134024;27;20676;-71
2023/04/22 01:02:22;;;;;;;;;;;;;;;7.67;47.19;99234.00;5148768;27;20091;-70
2023/04/22 01:04:53;;;;;;;0.98;0.20;;;;;;;7.66;47.16;99226.91;5116193;27;19930;-70
2023/04/22 01:07:20;;;;;;;0.10;0.10;;;;;;;7.64;47.06;99227.19;5146947;27;20051;-69
2023/04/22 01:09:46;;;;;;;0.17;0.17;;;;;;;7.60;47.51;99222.53;5147068;27;20516;-70
2023/04/22 01:12:13;;;;;;;0.10;0.10;;;;;;;7.59;47.47;99229.91;5149135;27;20052;-69
2023/04/22 01:14:40;;;;;;;0.17;0.17;;;;;;;7.59;47.63;99218.19;5130122;27;20154;-69
2023/04/22 01:17:09;;;;;;;0.17;0.17;;;;;;;7.55;47.70;99225.25;5149502;27;20081;-70
2023/04/22 01:19:36;;;;;;;0.20;0.20;;;;;;;7.59;47.66;99215.47;5146499;27;20355;-70
2023/04/22 01:22:03;;;;;;;0.10;0.10;;;;;;;7.54;47.84;99210.03;5148091;27;20043;-70
2023/04/22 01:24:32;;;;;;;0.20;0.20;;;;;;;7.56;47.74;99214.09;5149319;27;20300;-70
2023/04/22 01:26:58;;;;;;;0.20;0.20;;;;;;;7.54;48.02;99224.41;5149026;27;20046;-70
2023/04/22 01:29:25;;;;;;;0.10;0.10;;;;;;;7.47;48.13;99218.44;5145857;27;20120;-71
2023/04/22 01:31:52;;;;;;;0.10;0.10;;;;;;;7.47;47.96;99215.72;5146322;27;20045;-70
2023/04/22 01:34:18;;;;;;;0.20;0.20;;;;;;;7.52;48.06;99213.00;5148578;27;20504;-70
2023/04/22 01:36:44;;;;;;;0.10;0.10;;;;;;;7.46;48.02;99214.09;5145883;27;20099;-70
2023/04/22 01:39:10;;;;;;;0.10;0.10;;;;;;;7.44;48.33;99208.09;5129038;27;20055;-70
2023/04/22 01:41:38;;;;;;;0.52;0.13;;;;;;;7.42;48.26;99211.06;5148879;27;20043;-69
2023/04/22 01:44:04;;;;;;;0.10;0.10;;;;;;;7.36;48.23;99212.97;5129279;27;20087;-69
2023/04/22 01:46:32;;;;;;;0.10;0.10;;;;;;;7.33;48.62;99213.50;5148329;27;20043;-69
2023/04/22 01:48:59;;;;;;;0.20;0.20;;;;;;;7.27;48.67;99209.16;5149086;27;20300;-69
2023/04/22 01:51:25;;;;;;;0.10;0.10;;;;;;;7.26;48.74;99207.50;5146410;27;20322;-69
2023/04/22 01:53:51;;;;;;;0.10;0.10;;;;;;;7.30;48.73;99210.50;5148980;27;20087;-69
2023/04/22 01:56:17;;;;;;;0.10;0.10;;;;;;;7.30;48.71;99205.88;5148134;27;20070;-69
2023/04/22 01:58:45;;;;;;;0.10;0.10;;;;;;;7.29;48.67;99215.13;5146696;27;20039;-69
2023/04/22 02:01:13;;;;;;;0.10;0.10;;;;;;;7.29;48.91;99215.13;5146785;27;20038;-69
2023/04/22 02:03:40;;;;;;;0.20;0.20;;;;;;;7.37;48.70;99213.78;5145416;27;20042;-69
2023/04/22 02:06:07;;;;;;;0.10;0.10;;;;;;;7.43;48.76;99215.44;5146013;27;20080;-69
2023/04/22 02:08:33;;;;;;;0.10;0.10;;;;;;;7.23;48.84;99206.13;5146934;27;20133;-69
2023/04/22 02:10:59;;;;;;;0.20;0.20;;;;;;;7.26;49.12;99217.56;5147806;27;20054;-70
2023/04/22 02:13:34;;;;;;;0.10;0.10;;;;;;;7.19;49.17;99218.63;5128012;27;20046;-69
2023/04/22 02:16:02;;;;;;;0.10;0.10;;;;;;;7.14;49.25;99223.22;5127992;27;20145;-69
2023/04/22 02:18:28;;;;;;;0.10;0.10;;;;;;;7.13;49.62;99218.88;5147178;27;20532;-69
2023/04/22 02:20:54;;;;;;;0.10;0.10;;;;;;;7.11;49.77;99223.78;5147951;27;20477;-69
2023/04/22 02:23:20;;;;;;;0.10;0.10;;;;;;;7.06;49.82;99219.13;5149615;27;20039;-69
2023/04/22 02:25:49;;;;;;;0.20;0.20;;;;;;;7.05;49.92;99220.22;5145943;27;20133;-69
2023/04/22 02:28:15;;;;;;;0.10;0.10;;;;;;;7.07;49.86;99218.03;5146655;27;20046;-70
2023/04/22 02:30:41;;;;;;;0.10;0.10;;;;;;;7.11;50.07;99218.34;5147172;27;20051;-70
2023/04/22 02:33:09;;;;;;;0.10;0.10;;;;;;;7.17;49.99;99220.78;5147819;27;20496;-69
2023/04/22 02:35:36;;;;;;;0.20;0.20;;;;;;;7.20;49.86;99219.44;5145858;27;20115;-70
2023/04/22 02:38:02;;;;;;;0.10;0.10;;;;;;;7.20;49.72;99222.16;5146745;27;20513;-69
2023/04/22 02:40:28;;;;;;;0.20;0.20;;;;;;;7.20;49.64;99223.00;5148653;27;20038;-69
2023/04/22 02:42:54;;;;;;;0.65;0.13;;;;;;;7.19;49.83;99234.94;5144535;27;20042;-70
2023/04/22 02:45:21;;;;;;;0.10;0.10;;;;;;;7.17;49.75;99223.50;5145078;27;20137;-70
2023/04/22 02:47:47;;;;;;;0.20;0.20;;;;;;;7.23;49.93;99235.22;5144512;27;20071;-69
2023/04/22 02:50:16;;;;;;;0.20;0.20;;;;;;;7.23;49.69;99222.44;5147754;27;20493;-69
2023/04/22 02:52:42;;;;;;;0.10;0.10;;;;;;;7.33;49.52;99231.69;5147782;27;20111;-69
2023/04/22 02:55:09;;;;;;;0.20;0.20;;;;;;;7.35;49.57;99229.56;5148540;27;20046;-69
2023/04/22 02:57:35;;;;;;;0.20;0.20;;;;;;;7.49;49.49;99235.31;5145672;27;20050;-69
2023/04/22 03:00:03;;;;;;;0.20;0.20;;;;;;;7.54;49.24;99229.88;5147694;27;20412;-69
2023/04/22 03:02:33;;;;;;;0.10;0.10;;;;;;;7.52;49.11;99223.88;5147564;27;20042;-70
2023/04/22 03:05:19;;;;;;;0.20;0.20;;;;;;;7.56;49.21;99230.41;5132027;27;20413;-69
2023/04/22 03:07:46;;;;;;;;;;;;;;;7.58;49.18;99227.44;5143897;27;20095;-69
2023/04/22 03:10:14;;;;;;;0.20;0.20;;;;;;;7.57;48.89;99236.69;5128490;27;19975;-69
2023/04/22 03:12:40;;;;;;;0.20;0.20;;;;;;;7.59;49.07;99234.50;5148336;27;20427;-69
2023/04/22 03:15:08;;;;;;;0.20;0.20;;;;;;;7.61;48.97;99238.59;5147692;27;20145;-69
2023/04/22 03:17:36;;;;;;;0.10;0.10;;;;;;;7.64;48.95;99239.94;5144905;27;20397;-69
2023/04/22 03:20:07;;;;;;;0.20;0.20;;;;;;;7.70;48.92;99243.50;5130562;27;20504;-69
2023/04/22 03:22:35;;;;;;;0.20;0.20;;;;;;;7.77;48.87;99242.16;5143704;27;20504;-69
2023/04/22 03:25:03;;;;;;;0.20;0.20;;;;;;;7.80;48.57;99238.09;5127204;27;20394;-69
2023/04/22 03:27:32;;;;;;;0.47;0.35;;;;;;;7.85;48.46;99238.09;5142256;27;20050;-69
2023/04/22 03:29:58;;;;;;;0.38;0.20;;;;;;;7.91;48.46;99239.75;5146145;27;20051;-70
2023/04/22 03:32:24;;;;;;;0.20;0.20;;;;;;;8.06;48.17;99240.84;5143146;27;20410;-70
2023/04/22 03:35:01;;;;;;;0.10;0.10;;;;;;;8.18;47.94;99243.28;5120498;27;20039;-70
2023/04/22 03:37:29;;;;;;;0.20;0.20;;;;;;;8.23;47.79;99235.94;5126939;27;20103;-69
2023/04/22 03:39:57;;;;;;;0.20;0.20;;;;;;;8.26;47.67;99248.16;5144608;27;20042;-70
2023/04/22 03:42:23;;;;;;;0.30;0.30;;;;;;;8.36;47.64;99248.19;5125374;27;20043;-70
2023/04/22 03:44:51;;;;;;;0.20;0.20;;;;;;;8.43;47.52;99247.91;5120120;27;20047;-70
2023/04/22 03:47:21;;;;;;;0.20;0.20;;;;;;;8.50;47.28;99255.81;5128166;27;20134;-70
2023/04/22 03:49:52;;;;;;;0.20;0.20;;;;;;;8.50;47.07;99253.91;5122927;27;20047;-70
2023/04/22 03:52:19;;;;;;;0.20;0.20;;;;;;;8.59;47.07;99258.81;5122702;27;20051;-70
2023/04/22 03:54:52;;;;;;;0.20;0.20;;;;;;;8.64;46.98;99267.81;5122676;27;20035;-70
2023/04/22 03:57:20;;;;;;;0.32;0.32;;;;;;;8.68;46.75;99262.63;5123113;28;20934;-69
2023/04/22 03:59:47;;;;;;;0.52;0.22;;;;;;;8.75;46.61;99256.88;5125314;27;20043;-70
2023/04/22 04:02:13;;;;;;;0.28;0.25;;;;;;;8.85;46.48;99256.84;5119357;27;20060;-69
2023/04/22 04:04:39;;;;;;;0.30;0.30;;;;;;;8.92;46.29;99265.56;5121956;27;20107;-69
2023/04/22 04:07:07;;;;;;;0.10;0.10;;;;;;;8.97;46.14;99255.72;5122124;27;20043;-70
2023/04/22 04:09:33;;;;;;;0.20;0.20;;;;;;;9.05;45.84;99257.88;5129466;27;20532;-69
2023/04/22 04:12:01;;;;;;;0.20;0.20;;;;;;;9.14;45.59;99258.16;5108684;27;20497;-70
2023/04/22 04:14:33;;;;;;;0.30;0.30;;;;;;;9.21;45.41;99262.22;5129086;27;20568;-69
2023/04/22 04:17:02;;;;;;;0.30;0.30;;;;;;;9.27;45.28;99268.44;5109600;27;20053;-69
2023/04/22 04:19:31;;;;;;;0.20;0.20;;;;;;;9.31;45.20;99266.81;5110181;27;20051;-70
2023/04/22 04:21:58;;;;;;;0.20;0.20;;;;;;;9.37;45.01;99267.59;5126343;27;20287;-70
2023/04/22 04:24:27;;;;;;;0.20;0.20;;;;;;;9.42;44.83;99264.00;5108466;27;20157;-69
2023/04/22 04:27:00;;;;;;;0.20;0.20;;;;;;;9.47;44.58;99259.34;5130084;27;20162;-67
2023/04/22 04:29:36;;;;;;;0.20;0.20;;;;;;;9.56;44.59;99267.75;5134847;27;20035;-67
2023/04/22 04:32:14;;;;;;;0.20;0.20;;;;;;;9.62;44.27;99271.28;5139167;27;20120;-67
2023/04/22 04:34:41;;;;;;;0.20;0.20;;;;;;;9.70;44.11;99270.69;5133453;27;20553;-67
2023/04/22 04:37:08;;;;;;;0.20;0.20;;;;;;;9.75;43.80;99270.66;5135390;27;20039;-67
2023/04/22 04:39:44;;;;;;;0.25;0.25;;;;;;;9.83;43.69;99268.41;5139537;27;20456;-67
2023/04/22 04:42:13;;;;;;;0.30;0.30;;;;;;;9.88;43.51;99263.75;5143748;27;20047;-67
2023/04/22 04:44:50;;;;;;;0.20;0.20;;;;;;;9.96;43.40;99267.78;5128799;27;20138;-68
2023/04/22 04:47:18;;;;;;;0.20;0.20;;;;;;;10.02;43.20;99266.66;5111865;27;20128;-68
2023/04/22 04:49:46;;;;;;;0.20;0.20;;;;;;;10.11;43.12;99271.50;5113721;27;20051;-68
2023/04/22 04:52:13;;;;;;;0.20;0.20;;;;;;;10.11;42.91;99257.84;5129280;27;20067;-68
2023/04/22 04:54:39;;;;;;;0.20;0.20;;;;;;;10.26;42.74;99268.66;5125723;27;20517;-68
2023/04/22 04:57:05;;;;;;;0.28;0.28;;;;;;;10.33;42.75;99268.34;5116245;27;20162;-68
2023/04/22 04:59:32;;;;;;;0.45;0.30;;;;;;;10.40;42.24;99274.31;5130043;27;20057;-68
2023/04/22 05:02:00;;;;;;;0.20;0.20;;;;;;;10.48;42.24;99264.69;5148517;27;20133;-68
2023/04/22 05:04:28;;;;;;;0.20;0.20;;;;;;;10.52;41.79;99265.75;5150991;27;20060;-68
2023/04/22 05:06:54;;;;;;;0.20;0.20;;;;;;;10.61;41.79;99268.66;5130056;27;20099;-69
2023/04/22 05:09:21;;;;;;;0.20;0.20;;;;;;;10.69;41.45;99278.16;5150859;27;20153;-70
2023/04/22 05:11:49;;;;;;;0.28;0.20;;;;;;;10.73;41.38;99268.28;5116975;27;20300;-69
2023/04/22 05:14:19;;;;;;;0.20;0.20;;;;;;;10.78;41.25;99282.72;5125618;27;20127;-70
2023/04/22 05:16:46;;;;;;;0.20;0.20;;;;;;;10.84;41.09;99279.91;5120107;27;20437;-69
2023/04/22 05:19:14;;;;;;;0.20;0.20;;;;;;;10.90;40.80;99278.78;5109371;27;20081;-69
2023/04/22 05:21:41;;;;;;;0.20;0.20;;;;;;;10.98;40.68;99280.88;5124570;27;20047;-69
2023/04/22 05:24:08;;;;;;;0.20;0.20;;;;;;;11.03;40.20;99275.38;5127645;27;20100;-69
2023/04/22 05:26:35;;;;;;;0.20;0.20;;;;;;;11.13;39.94;99279.06;5130533;27;20501;-69
2023/04/22 05:29:07;;;;;;;0.20;0.20;;;;;;;11.17;39.76;99272.72;5130060;27;20037;-69
2023/04/22 05:31:33;;;;;;;0.20;0.20;;;;;;;11.21;39.57;99278.44;5127328;27;20501;-70
2023/04/22 05:33:59;;;;;;;0.20;0.20;;;;;;;11.29;39.36;99280.50;5127847;27;20636;-69
2023/04/22 05:36:28;;;;;;;0.20;0.20;;;;;;;11.34;39.17;99277.75;5125944;27;20070;-70
2023/04/22 05:38:54;;;;;;;0.20;0.20;;;;;;;11.38;39.06;99277.94;5130649;27;20076;-70
2023/04/22 05:41:21;;;;;;;0.20;0.20;;;;;;;11.43;39.06;99277.91;5125018;27;20146;-70
2023/04/22 05:43:47;;;;;;;0.20;0.20;;;;;;;11.46;38.83;99274.56;5127508;27;20067;-70
2023/04/22 05:46:19;;;;;;;0.20;0.20;;;;;;;11.50;38.65;99272.06;5127067;27;20091;-69
2023/04/22 05:48:47;;;;;;;0.20;0.20;;;;;;;11.52;38.54;99274.50;5109639;27;20574;-69
2023/04/22 05:51:41;;;;;;;0.20;0.20;;;;;;;11.58;38.47;99274.13;5112464;27;20073;-70
2023/04/22 05:54:11;;;;;;;0.20;0.20;;;;;;;11.62;38.23;99268.88;5128646;27;20576;-70
2023/04/22 05:56:37;;;;;;;0.25;0.25;;;;;;;11.85;38.00;99274.59;5128044;27;20041;-70
2023/04/22 05:59:03;;;;;;;0.57;0.30;;;;;;;12.15;37.45;99278.84;5136065;27;20426;-70
2023/04/22 06:01:30;;;;;;;0.20;0.20;;;;;;;12.40;36.62;99276.78;5128265;27;20046;-70
2023/04/22 06:04:00;;;;;;;0.20;0.20;;;;;;;12.62;36.41;99281.63;5127292;27;20460;-71
2023/04/22 06:06:29;;;;;;;0.25;0.20;;;;;;;12.80;36.22;99284.63;5126462;27;20051;-70
2023/04/22 06:08:57;;;;;;;0.20;0.20;;;;;;;12.99;35.89;99275.50;5122608;27;20075;-70
2023/04/22 06:11:23;;;;;;;0.20;0.20;;;;;;;13.22;35.32;99281.91;5126280;27;20103;-70
2023/04/22 06:13:50;;;;;;;0.28;0.22;;;;;;;13.31;35.16;99276.50;5126796;27;20506;-70
2023/04/22 06:16:16;;;;;;;0.20;0.20;;;;;;;13.32;34.94;99281.69;5106001;27;20057;-70
2023/04/22 06:18:43;;;;;;;0.20;0.20;;;;;;;13.31;34.89;99273.75;5135213;27;20053;-70
2023/04/22 06:21:11;;;;;;;0.20;0.20;;;;;;;13.28;35.12;99279.88;5139549;27;20130;-70
2023/04/22 06:23:37;;;;;;;0.20;0.20;;;;;;;13.15;34.80;99254.03;5140893;27;20077;-70
2023/04/22 06:26:05;;;;;;;0.20;0.20;;;;;;;13.35;34.87;99277.53;5142219;27;20042;-70
2023/04/22 06:28:32;;;;;;;0.20;0.20;;;;;;;13.55;34.49;99281.81;5141820;27;20501;-69
2023/04/22 06:31:04;;;;;;;0.20;0.20;;;;;;;13.77;33.95;99273.94;5125036;27;20484;-70
2023/04/22 06:33:30;;;;;;;0.20;0.20;;;;;;;13.91;34.04;99269.22;5123614;27;20034;-69
2023/04/22 06:35:56;;;;;;;0.20;0.20;;;;;;;13.91;33.93;99274.72;5148154;27;20513;-69
2023/04/22 06:38:22;;;;;;;0.30;0.30;;;;;;;14.00;33.46;99270.09;5148881;27;20051;-70
2023/04/22 06:41:10;;;;;;;0.30;0.30;;;;;;;14.06;33.47;99272.72;5148681;27;20047;-70
2023/04/22 06:43:43;;;;;;;0.30;0.30;;;;;;;14.19;33.51;99266.34;5143832;27;20458;-70
2023/04/22 06:46:37;;;;;;;0.20;0.20;;;;;;;14.43;32.95;99265.22;5147177;27;20100;-71
2023/04/22 06:49:27;;;;;;;0.38;0.30;;;;;;;14.52;32.80;99259.78;5127880;27;20044;-71
2023/04/22 06:51:53;;;;;;;0.30;0.30;;;;;;;14.63;32.61;99266.66;5140463;27;20130;-71
2023/04/22 06:54:20;;;;;;;0.30;0.30;;;;;;;14.74;32.58;99262.50;5139986;27;20053;-70
2023/04/22 06:56:47;;;;;;;0.20;0.20;;;;;;;14.96;32.42;99260.03;5140735;27;20039;-70
2023/04/22 06:59:13;;;;;;;0.30;0.30;;;;;;;15.18;31.89;99264.63;5125893;27;20085;-70
2023/04/22 07:01:40;;;;;;;0.30;0.30;;;;;;;15.45;31.52;99252.59;5148585;27;20038;-70
2023/04/22 07:04:07;;;;;;;0.30;0.30;;;;;;;15.52;31.50;99262.31;5127224;27;20073;-70
2023/04/22 07:06:34;;;;;;;0.22;0.22;;;;;;;15.83;31.39;99248.38;5127906;27;20085;-68
2023/04/22 07:09:01;;;;;;;0.30;0.30;;;;;;;16.26;30.72;99257.00;5145843;27;20051;-68
2023/04/22 07:11:27;;;;;;;0.30;0.30;;;;;;;16.61;29.89;99253.38;5146195;27;20073;-68
2023/04/22 07:14:08;;;;;;;0.30;0.30;;;;;;;16.65;29.94;99260.69;5130918;27;20038;-68
2023/04/22 07:16:34;;;;;;;0.30;0.30;;;;;;;16.82;29.50;99251.50;5147313;27;20423;-68
2023/04/22 07:19:01;;;;;;;0.30;0.30;;;;;;;16.98;29.20;99248.22;5144049;27;20057;-70
2023/04/22 07:21:27;;;;;;;0.55;0.40;;;;;;;17.03;29.05;99241.72;5145510;27;20050;-70
2023/04/22 07:23:53;;;;;;;0.30;0.30;;;;;;;17.12;28.98;99248.81;5146451;27;20047;-69
2023/04/22 07:26:20;;;;;;;0.20;0.20;;;;;;;16.79;29.52;99252.19;5145153;27;20581;-69
2023/04/22 07:28:46;;;;;;;0.40;0.40;;;;;;;16.63;29.49;99259.38;5144963;27;20039;-70
2023/04/22 07:31:13;;;;;;;0.30;0.30;;;;;;;16.86;29.00;99254.44;5148127;27;20467;-70
2023/04/22 07:33:39;;;;;;;0.30;0.30;;;;;;;17.10;28.78;99253.88;5148420;27;20058;-70
2023/04/22 07:36:06;;;;;;;0.30;0.30;;;;;;;16.79;28.76;99256.91;5150336;27;20058;-70
2023/04/22 07:38:35;;;;;;;0.30;0.30;;;;;;;16.58;28.83;99257.59;5146340;27;20043;-69
2023/04/22 07:41:01;;;;;;;0.20;0.20;;;;;;;16.30;29.25;99258.78;5145026;27;20419;-68
2023/04/22 07:43:28;;;;;;;0.30;0.30;;;;;;;15.99;29.56;99253.44;5151108;27;20492;-68
2023/04/22 07:45:54;;;;;;;0.30;0.30;;;;;;;15.60;29.85;99256.81;5152929;27;20092;-68
2023/04/22 07:48:22;;;;;;;0.43;0.40;;;;;;;15.41;30.42;99253.53;5152016;27;20129;-67
2023/04/22 07:50:48;;;;;;;0.40;0.40;;;;;;;16.25;28.85;99253.44;5151634;27;20043;-68
2023/04/22 07:53:16;;;;;;;0.30;0.30;;;;;;;16.81;28.21;99258.19;5153745;27;20049;-67
2023/04/22 07:55:42;;;;;;;0.30;0.30;;;;;;;16.57;28.65;99267.00;5152329;27;20043;-68
2023/04/22 07:58:08;;;;;;;0.30;0.30;;;;;;;16.18;29.29;99261.41;5151574;27;20061;-68
2023/04/22 08:00:35;;;;;;;0.20;0.20;;;;;;;15.84;29.73;99261.06;5152814;27;20054;-68
2023/04/22 08:03:02;;;;;;;0.30;0.30;;;;;;;15.61;30.39;99257.63;5152648;27;20146;-68
2023/04/22 08:05:30;;;;;;;0.30;0.30;;;;;;;15.35;30.85;99263.88;5153040;27;20047;-68
2023/04/22 08:07:56;;;;;;;0.25;0.25;;;;;;;15.11;30.50;99256.03;5134508;27;20042;-68
2023/04/22 08:10:22;;;;;;;0.70;0.30;;;;;;;14.89;30.44;99255.78;5149441;27;20057;-68
2023/04/22 08:12:49;;;;;;;0.22;0.22;;;;;;;14.78;30.30;99257.19;5153280;27;20100;-68
2023/04/22 08:15:15;;;;;;;0.30;0.30;;;;;;;14.66;30.50;99257.75;5151396;27;20043;-68
2023/04/22 08:17:42;;;;;;;0.30;0.30;;;;;;;14.54;30.30;99265.78;5148120;27;20054;-68
2023/04/22 08:20:09;;;;;;;0.28;0.28;;;;;;;14.48;30.43;99265.09;5153162;27;20042;-68
2023/04/22 08:22:37;;;;;;;0.30;0.30;;;;;;;14.50;30.95;99271.09;5152225;27;20705;-68
2023/04/22 08:25:05;;;;;;;0.30;0.30;;;;;;;14.55;30.78;99262.72;5151563;27;20429;-68
2023/04/22 08:27:31;;;;;;;0.40;0.40;;;;;;;15.12;30.37;99263.97;5152886;27;20043;-68
2023/04/22 08:29:58;;;;;;;0.50;0.50;;;;;;;17.14;27.57;99274.16;5134138;27;20407;-68
2023/04/22 08:32:25;;;;;;;0.40;0.40;;;;;;;19.02;25.26;99260.13;5149692;27;20257;-68
2023/04/22 08:34:51;;;;;;;0.38;0.30;;;;;;;19.86;24.14;99255.19;5153144;27;20042;-68
2023/04/22 08:37:17;;;;;;;0.30;0.30;;;;;;;19.53;23.78;99258.97;5150685;27;20042;-68
2023/04/22 08:39:45;;;;;;;1.05;0.60;;;;;;;19.48;24.26;99256.41;5147976;27;20055;-69
2023/04/22 08:42:11;;;;;;;0.60;0.60;;;;;;;20.78;22.37;99260.13;5148788;27;20046;-68
2023/04/22 08:44:38;;;;;;;0.60;0.60;;;;;;;21.96;21.54;99262.53;5147211;27;20050;-68
2023/04/22 08:47:05;;;;;;;0.60;0.60;;;;;;;22.99;20.17;99260.47;5148947;27;20051;-68
2023/04/22 08:49:33;;;;;;;0.60;0.60;;;;;;;23.86;19.52;99254.22;5148609;27;20042;-68
2023/04/22 08:51:59;;;;;;;0.70;0.70;;;;;;;24.48;18.97;99252.19;5146468;27;20042;-68
2023/04/22 08:54:26;;;;;;;0.50;0.50;;;;;;;23.65;19.60;99244.41;5148052;27;20146;-69
2023/04/22 08:56:54;;;;;;;0.40;0.40;;;;;;;21.85;20.83;99245.56;4792043;27;10000243;-68
2023/04/22 08:59:21;;;;;;;0.85;0.45;;;;;;;19.94;22.87;99250.69;5146676;27;20047;-68
2023/04/22 09:01:49;;;;;;;;;;;;;;;18.62;24.28;99249.66;5148568;27;20489;-68
2023/04/22 09:04:17;;;;;;;0.30;0.30;;;;;;;17.67;25.50;99257.28;5147668;27;19930;-68
2023/04/22 09:06:43;;;;;;;0.30;0.30;;;;;;;16.97;26.53;99257.63;5147050;27;20134;-68
2023/04/22 09:09:10;;;;;;;0.30;0.30;;;;;;;16.48;27.60;99258.75;5144606;27;20050;-69
2023/04/22 09:11:36;;;;;;;0.55;0.50;;;;;;;16.11;27.94;99250.84;5146311;27;20429;-68
2023/04/22 09:14:05;;;;;;;0.50;0.50;;;;;;;15.89;28.51;99251.81;5145160;27;20535;-68
2023/04/22 09:16:31;;;;;;;0.30;0.30;;;;;;;15.75;28.74;99254.72;5144001;27;20153;-69
2023/04/22 09:18:58;;;;;;;0.73;0.33;;;;;;;15.71;28.80;99254.53;5145902;27;20062;-68
2023/04/22 09:21:26;;;;;;;0.30;0.30;;;;;;;15.76;29.03;99256.34;5141982;27;20137;-68
2023/04/22 09:23:54;;;;;;;0.30;0.30;;;;;;;15.91;28.77;99251.53;5144455;27;20150;-68
2023/04/22 09:26:21;;;;;;;0.30;0.30;;;;;;;16.13;28.60;99250.53;5144969;27;20417;-68
2023/04/22 09:28:49;;;;;;;0.30;0.30;;;;;;;16.28;28.83;99252.78;5141351;27;20429;-68
2023/04/22 09:31:17;;;;;;;0.40;0.40;;;;;;;16.66;27.92;99253.19;5144779;27;20299;-68
2023/04/22 09:33:48;;;;;;;0.55;0.55;;;;;;;17.21;27.21;99253.50;5146186;27;20141;-68
2023/04/22 09:36:14;;;;;;;0.60;0.60;;;;;;;18.46;25.93;99255.03;5146651;27;20046;-68
2023/04/22 09:38:40;;;;;;;0.47;0.47;;;;;;;19.52;24.08;99247.06;5147113;27;20050;-68
2023/04/22 09:41:09;;;;;;;0.60;0.60;;;;;;;19.84;23.80;99246.44;5145462;27;20121;-68
2023/04/22 09:43:37;;;;;;;0.70;0.70;;;;;;;20.05;23.21;99248.22;5147392;27;20081;-68
2023/04/22 09:46:03;;;;;;;0.50;0.50;;;;;;;20.94;22.63;99254.59;5146136;27;20050;-68
2023/04/22 09:48:31;;;;;;;1.90;1.70;;;;;;;21.52;22.33;99250.41;5146305;27;20187;-68
2023/04/22 09:50:57;;;;;;;0.85;0.60;;;;;;;22.95;20.67;99252.06;5129602;27;20091;-69
2023/04/22 09:53:24;;;;;;;0.50;0.50;;;;;;;22.74;21.05;99249.72;5147816;27;20058;-68
2023/04/22 09:55:52;;;;;;;0.40;0.40;;;;;;;21.60;21.66;99251.38;5144988;27;20044;-68
2023/04/22 09:58:20;;;;;;;0.40;0.40;;;;;;;20.16;23.72;99245.75;5160687;27;20057;-69
2023/04/22 10:00:49;;;;;;;0.40;0.40;;;;;;;19.04;24.98;99249.50;5167142;27;20042;-68
2023/04/22 10:03:15;;;;;;;0.30;0.30;;;;;;;18.27;25.75;99248.03;5167313;27;20050;-68
2023/04/22 10:05:44;;;;;;;0.40;0.40;;;;;;;17.90;26.27;99248.66;5167594;27;20438;-68
2023/04/22 10:08:13;;;;;;;0.40;0.40;;;;;;;17.72;26.50;99243.25;5166318;27;20046;-68
2023/04/22 10:10:40;;;;;;;0.40;0.40;;;;;;;17.54;26.81;99250.06;5164797;27;20458;-68
2023/04/22 10:13:07;;;;;;;0.40;0.40;;;;;;;17.43;26.75;99246.88;5163253;27;20057;-68
2023/04/22 10:15:34;;;;;;;;;;;;;;;17.66;26.60;99249.31;5166333;27;20046;-69
2023/04/22 10:18:03;;;;;;;1.10;1.10;;;;;;;19.91;23.71;99243.06;5162280;27;19930;-68
2023/04/22 10:20:30;;;;;;;1.30;1.20;;;;;;;22.30;20.88;99236.94;5166612;27;20560;-68
2023/04/22 10:22:58;;;;;;;1.30;1.20;;;;;;;24.50;18.34;99239.44;5147601;27;20604;-69
2023/04/22 10:25:25;;;;;;;1.30;1.20;;;;;;;26.26;16.86;99236.69;5172146;27;20063;-69
2023/04/22 10:27:53;;;;;;;0.60;0.60;;;;;;;26.63;16.38;99240.38;5167423;27;20050;-70
2023/04/22 10:30:26;;;;;;;1.02;1.02;;;;;;;26.09;16.72;99227.00;5167850;27;20094;-70
2023/04/22 10:32:53;;;;;;;0.57;0.57;;;;;;;25.19;17.85;99228.09;5170029;27;20125;-69
2023/04/22 10:35:28;;;;;;;0.60;0.60;;;;;;;23.67;18.89;99230.06;5170595;27;20129;-70
2023/04/22 10:37:54;;;;;;;0.50;0.50;;;;;;;21.95;20.49;99239.44;5169838;27;20045;-69
2023/04/22 10:40:22;;;;;;;0.40;0.40;;;;;;;20.72;22.11;99235.75;5170219;27;20420;-70
2023/04/22 10:42:50;;;;;;;1.20;1.20;;;;;;;20.58;22.07;99244.50;5168026;27;20038;-69
2023/04/22 10:45:17;;;;;;;0.40;0.40;;;;;;;21.43;20.96;99232.31;5151500;27;20117;-69
2023/04/22 10:47:44;;;;;;;0.90;0.90;;;;;;;20.77;21.63;99232.69;5171320;27;20138;-69
2023/04/22 10:50:12;;;;;;;1.27;1.20;;;;;;;21.58;20.13;99237.03;5170391;27;20141;-69
2023/04/22 10:52:39;;;;;;;1.30;1.20;;;;;;;23.41;18.38;99233.66;5168216;27;20049;-69
2023/04/22 10:55:05;;;;;;;;;;;;;;;25.17;17.17;99234.06;5151410;27;20045;-69
2023/04/22 10:57:41;;;;;;;1.13;1.13;;;;;;;26.45;15.72;99216.72;5168284;27;19926;-69
2023/04/22 11:00:23;;;;;;;1.40;1.30;;;;;;;27.16;15.08;99230.38;5166751;27;20046;-70
2023/04/22 11:02:54;;;;;;;1.30;1.20;;;;;;;27.90;14.31;99218.63;5167044;27;20655;-70
2023/04/22 11:05:22;;;;;;;1.40;1.30;;;;;;;28.39;14.15;99229.25;5169910;27;20060;-70
2023/04/22 11:07:51;;;;;;;0.63;0.63;;;;;;;28.00;13.99;99219.78;5170340;27;20049;-70
2023/04/22 11:10:41;;;;;;;0.50;0.50;;;;;;;25.48;16.20;99228.31;5167917;27;20424;-70
2023/04/22 11:13:12;;;;;;;0.40;0.40;;;;;;;23.45;17.81;99221.38;5151463;27;20046;-70
2023/04/22 11:15:40;;;;;;;0.40;0.40;;;;;;;21.92;19.70;99225.44;5149265;27;20107;-69
2023/04/22 11:18:13;;;;;;;0.52;0.43;;;;;;;20.56;21.10;99219.88;5150446;27;20046;-69
2023/04/22 11:20:39;;;;;;;0.40;0.40;;;;;;;19.52;22.17;99229.63;5167189;27;20042;-69
2023/04/22 11:23:06;;;;;;;1.10;1.10;;;;;;;18.99;22.83;99236.69;5147278;27;20149;-69
2023/04/22 11:25:32;;;;;;;0.40;0.40;;;;;;;19.31;22.75;99230.56;5168931;27;20087;-69
2023/04/22 11:27:58;;;;;;;0.40;0.40;;;;;;;19.24;22.92;99227.56;5168365;27;20452;-69
2023/04/22 11:30:27;;;;;;;0.40;0.40;;;;;;;19.09;23.42;99227.13;5168642;27;20038;-69
2023/04/22 11:32:57;;;;;;;0.50;0.50;;;;;;;19.29;23.48;99223.78;5168120;27;20050;-69
2023/04/22 11:35:25;;;;;;;0.82;0.50;;;;;;;19.62;22.83;99220.81;5171599;27;20434;-69
2023/04/22 11:37:54;;;;;;;0.50;0.50;;;;;;;;;;5166207;27;20054;-69
2023/04/22 11:40:24;;;;;;;1.40;1.30;;;;;;;21.59;20.88;99224.75;5166480;27;20050;-69
2023/04/22 11:42:51;;;;;;;1.40;1.30;;;;;;;23.98;18.30;99222.50;5164318;27;20069;-69